sensor_id;sensor_type;location;lat;lon;timestamp;pressure;altitude;pressure_sealevel;temperature;humidity
49949;BME280;35840;45.982;8.890;2023-08-30T00:01:08;97274.28;;;16.22;55.20
49949;BME280;35840;45.982;8.890;2023-08-30T00:03:35;97275.63;;;16.34;53.76
49949;BME280;35840;45.982;8.890;2023-08-30T00:06:03;97271.69;;;16.22;55.13
49949;BME280;35840;45.982;8.890;2023-08-30T00:08:31;97280.88;;;16.08;54.64
49949;BME280;35840;45.982;8.890;2023-08-30T00:10:58;97286.78;;;16.26;55.74
49949;BME280;35840;45.982;8.890;2023-08-30T00:13:25;97286.81;;;16.00;57.18
49949;BME280;35840;45.982;8.890;2023-08-30T00:15:52;97292.09;;;15.90;57.15
49949;BME280;35840;45.982;8.890;2023-08-30T00:18:18;97293.75;;;15.73;57.11
49949;BME280;35840;45.982;8.890;2023-08-30T00:20:45;97288.31;;;15.58;57.88
49949;BME280;35840;45.982;8.890;2023-08-30T00:23:11;97292.81;;;15.56;58.68
49949;BME280;35840;45.982;8.890;2023-08-30T00:25:38;97291.22;;;15.55;57.64
49949;BME280;35840;45.982;8.890;2023-08-30T00:28:05;97285.97;;;15.73;59.33
49949;BME280;35840;45.982;8.890;2023-08-30T00:30:33;97290.44;;;15.63;57.57
49949;BME280;35840;45.982;8.890;2023-08-30T00:33:02;97288.72;;;15.72;57.11
49949;BME280;35840;45.982;8.890;2023-08-30T00:35:29;97291.28;;;15.90;57.16
49949;BME280;35840;45.982;8.890;2023-08-30T00:37:56;97295.97;;;15.86;55.20
49949;BME280;35840;45.982;8.890;2023-08-30T00:40:26;97297.13;;;15.92;54.84
49949;BME280;35840;45.982;8.890;2023-08-30T00:42:52;97300.13;;;15.79;56.86
49949;BME280;35840;45.982;8.890;2023-08-30T00:45:19;97305.63;;;15.58;57.85
49949;BME280;35840;45.982;8.890;2023-08-30T00:47:46;97304.31;;;15.54;57.40
49949;BME280;35840;45.982;8.890;2023-08-30T00:50:13;97296.31;;;15.65;57.64
49949;BME280;35840;45.982;8.890;2023-08-30T00:52:39;97295.78;;;15.61;57.53
49949;BME280;35840;45.982;8.890;2023-08-30T00:55:06;97296.38;;;15.55;56.04
49949;BME280;35840;45.982;8.890;2023-08-30T00:57:33;97292.84;;;15.38;56.48
49949;BME280;35840;45.982;8.890;2023-08-30T01:00:00;97281.88;;;15.44;55.64
49949;BME280;35840;45.982;8.890;2023-08-30T01:02:28;97287.94;;;15.53;55.91
49949;BME280;35840;45.982;8.890;2023-08-30T01:04:55;97292.03;;;15.38;55.38
49949;BME280;35840;45.982;8.890;2023-08-30T01:07:23;97299.25;;;15.52;55.57
49949;BME280;35840;45.982;8.890;2023-08-30T01:09:49;97302.91;;;15.59;55.89
49949;BME280;35840;45.982;8.890;2023-08-30T01:12:17;97300.31;;;15.59;56.38
49949;BME280;35840;45.982;8.890;2023-08-30T01:17:16;97299.38;;;15.69;54.69
49949;BME280;35840;45.982;8.890;2023-08-30T01:19:53;97302.34;;;15.74;55.00
49949;BME280;35840;45.982;8.890;2023-08-30T01:27:22;97308.41;;;15.64;57.07
49949;BME280;35840;45.982;8.890;2023-08-30T01:29:50;97304.66;;;15.59;57.34
49949;BME280;35840;45.982;8.890;2023-08-30T01:32:20;97306.44;;;15.58;57.04
49949;BME280;35840;45.982;8.890;2023-08-30T01:34:51;97301.59;;;15.63;57.33
49949;BME280;35840;45.982;8.890;2023-08-30T01:37:18;97301.38;;;15.75;55.91
49949;BME280;35840;45.982;8.890;2023-08-30T01:39:47;97305.84;;;15.82;56.32
49949;BME280;35840;45.982;8.890;2023-08-30T01:42:14;97302.22;;;16.01;56.79
49949;BME280;35840;45.982;8.890;2023-08-30T01:44:41;97297.13;;;15.92;57.00
49949;BME280;35840;45.982;8.890;2023-08-30T01:47:11;97299.22;;;15.88;56.62
49949;BME280;35840;45.982;8.890;2023-08-30T01:49:38;97299.66;;;16.10;58.29
49949;BME280;35840;45.982;8.890;2023-08-30T01:52:06;97297.50;;;15.97;57.80
49949;BME280;35840;45.982;8.890;2023-08-30T01:54:33;97284.22;;;15.74;58.32
49949;BME280;35840;45.982;8.890;2023-08-30T01:57:00;97288.94;;;16.05;57.84
49949;BME280;35840;45.982;8.890;2023-08-30T01:59:27;97282.59;;;15.99;57.78
49949;BME280;35840;45.982;8.890;2023-08-30T02:01:53;97296.28;;;16.09;57.09
49949;BME280;35840;45.982;8.890;2023-08-30T02:04:20;97298.16;;;16.33;57.92
49949;BME280;35840;45.982;8.890;2023-08-30T02:06:50;97294.75;;;16.33;59.08
49949;BME280;35840;45.982;8.890;2023-08-30T02:09:24;97300.47;;;16.10;57.83
49949;BME280;35840;45.982;8.890;2023-08-30T02:11:53;97301.78;;;16.14;57.18
49949;BME280;35840;45.982;8.890;2023-08-30T02:14:20;97302.56;;;16.07;58.12
49949;BME280;35840;45.982;8.890;2023-08-30T02:16:47;97304.81;;;16.01;58.27
49949;BME280;35840;45.982;8.890;2023-08-30T02:19:14;97303.47;;;15.97;58.54
49949;BME280;35840;45.982;8.890;2023-08-30T02:21:47;97303.56;;;15.88;60.07
49949;BME280;35840;45.982;8.890;2023-08-30T02:24:17;97304.09;;;15.91;60.07
49949;BME280;35840;45.982;8.890;2023-08-30T02:26:44;97301.00;;;15.88;60.92
49949;BME280;35840;45.982;8.890;2023-08-30T02:29:11;97307.25;;;16.03;60.75
49949;BME280;35840;45.982;8.890;2023-08-30T02:31:39;97296.13;;;15.84;61.27
49949;BME280;35840;45.982;8.890;2023-08-30T02:34:06;97297.59;;;15.87;61.70
49949;BME280;35840;45.982;8.890;2023-08-30T02:36:33;97303.56;;;15.88;59.75
49949;BME280;35840;45.982;8.890;2023-08-30T02:38:59;97295.84;;;15.96;58.76
49949;BME280;35840;45.982;8.890;2023-08-30T02:41:26;97300.59;;;16.00;57.75
49949;BME280;35840;45.982;8.890;2023-08-30T02:43:53;97289.75;;;15.79;58.22
49949;BME280;35840;45.982;8.890;2023-08-30T02:46:19;97291.13;;;15.91;58.69
49949;BME280;35840;45.982;8.890;2023-08-30T02:48:46;97289.19;;;15.93;59.08
49949;BME280;35840;45.982;8.890;2023-08-30T02:51:13;97286.69;;;16.10;59.27
49949;BME280;35840;45.982;8.890;2023-08-30T02:53:39;97291.09;;;15.83;58.88
49949;BME280;35840;45.982;8.890;2023-08-30T02:56:06;97282.19;;;15.67;58.98
49949;BME280;35840;45.982;8.890;2023-08-30T02:58:33;97282.09;;;15.77;58.59
49949;BME280;35840;45.982;8.890;2023-08-30T03:01:00;97282.66;;;15.81;59.66
49949;BME280;35840;45.982;8.890;2023-08-30T03:03:28;97277.47;;;15.81;59.36
49949;BME280;35840;45.982;8.890;2023-08-30T03:05:54;97281.25;;;15.87;59.32
49949;BME280;35840;45.982;8.890;2023-08-30T03:08:22;97284.69;;;15.77;58.25
49949;BME280;35840;45.982;8.890;2023-08-30T03:10:49;97280.06;;;15.81;59.79
49949;BME280;35840;45.982;8.890;2023-08-30T03:13:17;97276.22;;;15.93;59.04
49949;BME280;35840;45.982;8.890;2023-08-30T03:15:44;97282.03;;;15.87;59.79
49949;BME280;35840;45.982;8.890;2023-08-30T03:18:10;97279.44;;;15.87;61.11
49949;BME280;35840;45.982;8.890;2023-08-30T03:20:37;97277.25;;;15.74;62.20
49949;BME280;35840;45.982;8.890;2023-08-30T03:23:05;97276.22;;;15.85;61.64
49949;BME280;35840;45.982;8.890;2023-08-30T03:25:32;97273.88;;;15.56;63.09
49949;BME280;35840;45.982;8.890;2023-08-30T03:27:59;97283.06;;;15.94;61.57
49949;BME280;35840;45.982;8.890;2023-08-30T03:30:26;97273.09;;;16.08;60.94
49949;BME280;35840;45.982;8.890;2023-08-30T03:32:53;97274.53;;;16.02;62.82
49949;BME280;35840;45.982;8.890;2023-08-30T03:35:20;97267.53;;;16.03;62.29
49949;BME280;35840;45.982;8.890;2023-08-30T03:37:49;97268.75;;;15.82;63.86
49949;BME280;35840;45.982;8.890;2023-08-30T03:40:16;97270.78;;;15.78;63.06
49949;BME280;35840;45.982;8.890;2023-08-30T03:42:42;97274.25;;;15.61;63.31
49949;BME280;35840;45.982;8.890;2023-08-30T03:45:09;97272.84;;;15.48;64.50
49949;BME280;35840;45.982;8.890;2023-08-30T03:47:36;97265.72;;;15.50;64.24
49949;BME280;35840;45.982;8.890;2023-08-30T03:50:04;97279.81;;;15.48;64.97
49949;BME280;35840;45.982;8.890;2023-08-30T03:52:33;97271.53;;;15.44;65.39
49949;BME280;35840;45.982;8.890;2023-08-30T03:54:59;97266.25;;;15.54;63.06
49949;BME280;35840;45.982;8.890;2023-08-30T03:57:26;97277.72;;;15.52;61.82
49949;BME280;35840;45.982;8.890;2023-08-30T03:59:52;97279.13;;;15.64;60.72
49949;BME280;35840;45.982;8.890;2023-08-30T04:02:19;97265.50;;;15.62;61.15
49949;BME280;35840;45.982;8.890;2023-08-30T04:04:46;97266.72;;;15.76;60.45
49949;BME280;35840;45.982;8.890;2023-08-30T04:07:13;97258.88;;;15.86;60.79
49949;BME280;35840;45.982;8.890;2023-08-30T04:09:40;97265.31;;;15.81;61.32
49949;BME280;35840;45.982;8.890;2023-08-30T04:12:07;97269.13;;;15.95;60.73
49949;BME280;35840;45.982;8.890;2023-08-30T04:14:33;97270.72;;;15.88;60.88
49949;BME280;35840;45.982;8.890;2023-08-30T04:17:00;97273.56;;;15.59;62.01
49949;BME280;35840;45.982;8.890;2023-08-30T04:19:27;97281.78;;;15.72;61.13
49949;BME280;35840;45.982;8.890;2023-08-30T04:21:53;97277.63;;;15.61;60.36
49949;BME280;35840;45.982;8.890;2023-08-30T04:24:20;97283.75;;;15.78;62.01
49949;BME280;35840;45.982;8.890;2023-08-30T04:26:46;97270.25;;;15.66;61.73
49949;BME280;35840;45.982;8.890;2023-08-30T04:29:17;97278.97;;;15.83;61.75
49949;BME280;35840;45.982;8.890;2023-08-30T04:31:44;97285.72;;;15.58;63.18
49949;BME280;35840;45.982;8.890;2023-08-30T04:34:11;97277.81;;;15.42;63.20
49949;BME280;35840;45.982;8.890;2023-08-30T04:36:37;97283.94;;;15.41;63.45
49949;BME280;35840;45.982;8.890;2023-08-30T04:39:04;97279.53;;;15.33;64.50
49949;BME280;35840;45.982;8.890;2023-08-30T04:41:31;97287.44;;;15.31;64.90
49949;BME280;35840;45.982;8.890;2023-08-30T04:44:00;97288.47;;;15.39;64.56
49949;BME280;35840;45.982;8.890;2023-08-30T04:46:27;97291.44;;;15.26;64.58
49949;BME280;35840;45.982;8.890;2023-08-30T04:48:53;97283.75;;;15.34;65.09
49949;BME280;35840;45.982;8.890;2023-08-30T04:51:20;97274.13;;;15.44;65.03
49949;BME280;35840;45.982;8.890;2023-08-30T04:53:47;97277.34;;;15.64;64.20
49949;BME280;35840;45.982;8.890;2023-08-30T04:56:14;97281.94;;;15.53;65.03
49949;BME280;35840;45.982;8.890;2023-08-30T04:58:41;97278.28;;;15.63;63.42
49949;BME280;35840;45.982;8.890;2023-08-30T05:01:09;97279.06;;;15.56;62.58
49949;BME280;35840;45.982;8.890;2023-08-30T05:03:39;97283.84;;;15.69;60.86
49949;BME280;35840;45.982;8.890;2023-08-30T05:06:09;97276.94;;;15.77;60.52
49949;BME280;35840;45.982;8.890;2023-08-30T05:08:36;97280.41;;;15.86;60.70
49949;BME280;35840;45.982;8.890;2023-08-30T05:11:03;97287.84;;;15.81;60.47
49949;BME280;35840;45.982;8.890;2023-08-30T05:13:34;97288.13;;;15.78;60.87
49949;BME280;35840;45.982;8.890;2023-08-30T05:16:01;97288.31;;;15.58;61.76
49949;BME280;35840;45.982;8.890;2023-08-30T05:18:27;97299.06;;;15.45;63.06
49949;BME280;35840;45.982;8.890;2023-08-30T05:20:54;97305.81;;;15.38;60.63
49949;BME280;35840;45.982;8.890;2023-08-30T05:23:21;97292.31;;;15.53;61.08
49949;BME280;35840;45.982;8.890;2023-08-30T05:25:48;97290.28;;;15.64;60.02
49949;BME280;35840;45.982;8.890;2023-08-30T05:28:15;97288.03;;;15.88;59.62
49949;BME280;35840;45.982;8.890;2023-08-30T05:30:42;97284.69;;;15.95;59.75
49949;BME280;35840;45.982;8.890;2023-08-30T05:33:24;97286.81;;;15.56;62.22
49949;BME280;35840;45.982;8.890;2023-08-30T05:36:17;97286.59;;;15.67;61.72
49949;BME280;35840;45.982;8.890;2023-08-30T05:39:10;97288.31;;;15.58;63.19
49949;BME280;35840;45.982;8.890;2023-08-30T05:41:44;97294.66;;;15.82;63.95
49949;BME280;35840;45.982;8.890;2023-08-30T05:44:10;97290.28;;;15.82;63.10
49949;BME280;35840;45.982;8.890;2023-08-30T05:46:37;97293.53;;;15.84;61.35
49949;BME280;35840;45.982;8.890;2023-08-30T05:49:04;97303.44;;;15.89;60.68
49949;BME280;35840;45.982;8.890;2023-08-30T05:51:30;97299.69;;;15.83;61.09
49949;BME280;35840;45.982;8.890;2023-08-30T05:53:57;97293.84;;;15.81;69.27
49949;BME280;35840;45.982;8.890;2023-08-30T05:56:24;97299.78;;;16.00;68.35
49949;BME280;35840;45.982;8.890;2023-08-30T05:58:51;97297.06;;;16.10;68.80
49949;BME280;35840;45.982;8.890;2023-08-30T06:01:18;97296.47;;;15.90;68.10
49949;BME280;35840;45.982;8.890;2023-08-30T06:03:45;97305.31;;;15.79;64.80
49949;BME280;35840;45.982;8.890;2023-08-30T06:06:13;97303.69;;;15.78;62.96
49949;BME280;35840;45.982;8.890;2023-08-30T06:08:40;97301.28;;;15.84;62.98
49949;BME280;35840;45.982;8.890;2023-08-30T06:11:06;97299.22;;;15.88;62.36
49949;BME280;35840;45.982;8.890;2023-08-30T06:13:33;97302.16;;;15.93;60.78
49949;BME280;35840;45.982;8.890;2023-08-30T06:16:00;97304.38;;;16.06;59.88
49949;BME280;35840;45.982;8.890;2023-08-30T06:18:29;97312.00;;;16.16;61.91
49949;BME280;35840;45.982;8.890;2023-08-30T06:20:56;97305.81;;;16.09;61.33
49949;BME280;35840;45.982;8.890;2023-08-30T06:23:23;97307.13;;;16.13;60.48
49949;BME280;35840;45.982;8.890;2023-08-30T06:25:53;97313.31;;;16.12;62.24
49949;BME280;35840;45.982;8.890;2023-08-30T06:28:20;97309.47;;;16.24;60.44
49949;BME280;35840;45.982;8.890;2023-08-30T06:30:46;97320.88;;;16.40;61.72
49949;BME280;35840;45.982;8.890;2023-08-30T06:33:13;97316.97;;;16.35;63.27
49949;BME280;35840;45.982;8.890;2023-08-30T06:35:40;97317.53;;;16.47;64.99
49949;BME280;35840;45.982;8.890;2023-08-30T06:38:08;97315.09;;;16.54;63.22
49949;BME280;35840;45.982;8.890;2023-08-30T06:40:36;97319.38;;;16.63;62.56
49949;BME280;35840;45.982;8.890;2023-08-30T06:43:03;97313.06;;;16.66;60.98
49949;BME280;35840;45.982;8.890;2023-08-30T06:45:30;97321.31;;;16.69;62.05
49949;BME280;35840;45.982;8.890;2023-08-30T06:47:56;97328.13;;;16.62;60.95
49949;BME280;35840;45.982;8.890;2023-08-30T06:50:23;97325.69;;;16.61;60.78
49949;BME280;35840;45.982;8.890;2023-08-30T06:52:50;97313.66;;;16.60;62.37
49949;BME280;35840;45.982;8.890;2023-08-30T06:55:19;97328.94;;;16.63;61.67
49949;BME280;35840;45.982;8.890;2023-08-30T06:57:47;97327.66;;;16.75;59.86
49949;BME280;35840;45.982;8.890;2023-08-30T07:00:14;97318.41;;;16.73;59.94
49949;BME280;35840;45.982;8.890;2023-08-30T07:02:40;97308.88;;;16.81;61.37
49949;BME280;35840;45.982;8.890;2023-08-30T07:05:14;97304.16;;;16.85;61.43
49949;BME280;35840;45.982;8.890;2023-08-30T07:07:41;97307.94;;;16.91;60.58
49949;BME280;35840;45.982;8.890;2023-08-30T07:10:07;97306.66;;;16.95;60.88
49949;BME280;35840;45.982;8.890;2023-08-30T07:12:34;97313.19;;;17.07;61.88
49949;BME280;35840;45.982;8.890;2023-08-30T07:15:01;97302.63;;;17.09;60.56
49949;BME280;35840;45.982;8.890;2023-08-30T07:17:30;97306.19;;;17.08;59.67
49949;BME280;35840;45.982;8.890;2023-08-30T07:20:17;97298.75;;;17.13;60.19
49949;BME280;35840;45.982;8.890;2023-08-30T07:22:43;97307.19;;;17.23;59.42
49949;BME280;35840;45.982;8.890;2023-08-30T07:25:10;97302.97;;;17.22;59.14
49949;BME280;35840;45.982;8.890;2023-08-30T07:27:37;97301.66;;;17.26;59.58
49949;BME280;35840;45.982;8.890;2023-08-30T07:30:03;97297.78;;;17.38;60.98
49949;BME280;35840;45.982;8.890;2023-08-30T07:32:30;97302.16;;;17.54;60.33
49949;BME280;35840;45.982;8.890;2023-08-30T07:34:57;97305.25;;;17.66;57.19
49949;BME280;35840;45.982;8.890;2023-08-30T07:37:25;97310.94;;;17.78;57.38
49949;BME280;35840;45.982;8.890;2023-08-30T07:39:51;97314.50;;;17.85;55.80
49949;BME280;35840;45.982;8.890;2023-08-30T07:42:19;97317.91;;;17.94;56.13
49949;BME280;35840;45.982;8.890;2023-08-30T07:44:46;97319.53;;;17.95;55.84
49949;BME280;35840;45.982;8.890;2023-08-30T07:47:12;97332.22;;;17.98;55.14
49949;BME280;35840;45.982;8.890;2023-08-30T07:49:40;97328.47;;;18.01;56.10
49949;BME280;35840;45.982;8.890;2023-08-30T07:52:06;97327.97;;;17.97;56.37
49949;BME280;35840;45.982;8.890;2023-08-30T07:54:37;97328.97;;;17.96;56.52
49949;BME280;35840;45.982;8.890;2023-08-30T07:57:05;97326.84;;;18.00;55.66
49949;BME280;35840;45.982;8.890;2023-08-30T07:59:38;97335.94;;;18.04;56.20
49949;BME280;35840;45.982;8.890;2023-08-30T08:02:05;97334.47;;;18.10;55.67
49949;BME280;35840;45.982;8.890;2023-08-30T08:04:34;97340.47;;;18.18;56.14
49949;BME280;35840;45.982;8.890;2023-08-30T08:07:01;97335.41;;;18.25;57.72
49949;BME280;35840;45.982;8.890;2023-08-30T08:09:28;97338.97;;;18.32;55.99
49949;BME280;35840;45.982;8.890;2023-08-30T08:11:55;97337.47;;;18.38;56.36
49949;BME280;35840;45.982;8.890;2023-08-30T08:14:23;97343.47;;;18.47;55.30
49949;BME280;35840;45.982;8.890;2023-08-30T08:16:50;97347.50;;;18.57;55.80
49949;BME280;35840;45.982;8.890;2023-08-30T08:19:17;97354.63;;;18.64;54.85
49949;BME280;35840;45.982;8.890;2023-08-30T08:21:44;97345.84;;;18.65;57.22
49949;BME280;35840;45.982;8.890;2023-08-30T08:24:10;97347.59;;;18.72;56.31
49949;BME280;35840;45.982;8.890;2023-08-30T08:26:39;97345.63;;;18.83;57.56
49949;BME280;35840;45.982;8.890;2023-08-30T08:29:06;97354.06;;;18.85;55.79
49949;BME280;35840;45.982;8.890;2023-08-30T08:31:33;97358.13;;;18.96;56.84
49949;BME280;35840;45.982;8.890;2023-08-30T08:34:09;97359.88;;;18.95;54.47
49949;BME280;35840;45.982;8.890;2023-08-30T08:36:40;97358.06;;;19.04;55.82
49949;BME280;35840;45.982;8.890;2023-08-30T08:39:08;97360.16;;;19.08;54.21
49949;BME280;35840;45.982;8.890;2023-08-30T08:41:39;97362.38;;;19.20;55.05
49949;BME280;35840;45.982;8.890;2023-08-30T08:44:06;97359.94;;;19.41;54.02
49949;BME280;35840;45.982;8.890;2023-08-30T08:46:37;97369.03;;;19.46;51.81
49949;BME280;35840;45.982;8.890;2023-08-30T08:49:09;97366.78;;;19.42;51.29
49949;BME280;35840;45.982;8.890;2023-08-30T08:51:37;97366.44;;;19.46;52.88
49949;BME280;35840;45.982;8.890;2023-08-30T08:54:04;97368.25;;;19.45;50.95
49949;BME280;35840;45.982;8.890;2023-08-30T08:56:31;97375.53;;;19.50;53.33
49949;BME280;35840;45.982;8.890;2023-08-30T08:58:58;97380.41;;;19.53;53.72
49949;BME280;35840;45.982;8.890;2023-08-30T09:01:25;97380.50;;;19.59;52.97
49949;BME280;35840;45.982;8.890;2023-08-30T09:04:10;97377.56;;;19.63;54.35
49949;BME280;35840;45.982;8.890;2023-08-30T09:06:38;97390.72;;;19.69;55.86
49949;BME280;35840;45.982;8.890;2023-08-30T09:09:06;97389.56;;;19.72;53.23
49949;BME280;35840;45.982;8.890;2023-08-30T09:11:35;97397.03;;;19.75;54.98
49949;BME280;35840;45.982;8.890;2023-08-30T09:14:17;97394.53;;;19.82;54.11
49949;BME280;35840;45.982;8.890;2023-08-30T09:16:56;97396.41;;;19.96;50.96
49949;BME280;35840;45.982;8.890;2023-08-30T09:19:23;97389.56;;;19.95;51.16
49949;BME280;35840;45.982;8.890;2023-08-30T09:21:54;97394.78;;;19.95;52.92
49949;BME280;35840;45.982;8.890;2023-08-30T09:24:21;97396.22;;;20.12;53.42
49949;BME280;35840;45.982;8.890;2023-08-30T09:26:48;97385.72;;;20.21;51.79
49949;BME280;35840;45.982;8.890;2023-08-30T09:29:19;97385.47;;;20.30;49.73
49949;BME280;35840;45.982;8.890;2023-08-30T09:31:50;97387.34;;;20.37;47.59
49949;BME280;35840;45.982;8.890;2023-08-30T09:34:17;97390.06;;;20.43;50.01
49949;BME280;35840;45.982;8.890;2023-08-30T09:36:43;97384.75;;;20.52;48.83
49949;BME280;35840;45.982;8.890;2023-08-30T09:39:12;97389.25;;;20.58;47.33
49949;BME280;35840;45.982;8.890;2023-08-30T09:41:42;97381.63;;;20.71;45.83
49949;BME280;35840;45.982;8.890;2023-08-30T09:44:10;97388.03;;;20.69;50.04
49949;BME280;35840;45.982;8.890;2023-08-30T09:46:58;97386.13;;;20.77;50.38
49949;BME280;35840;45.982;8.890;2023-08-30T09:49:25;97385.59;;;20.67;46.00
49949;BME280;35840;45.982;8.890;2023-08-30T09:51:53;97380.06;;;20.62;47.56
49949;BME280;35840;45.982;8.890;2023-08-30T09:56:49;97384.50;;;20.76;48.85
49949;BME280;35840;45.982;8.890;2023-08-30T09:59:19;97378.09;;;20.79;49.12
49949;BME280;35840;45.982;8.890;2023-08-30T10:01:46;97370.88;;;20.96;47.94
49949;BME280;35840;45.982;8.890;2023-08-30T10:04:13;97371.25;;;20.93;44.52
49949;BME280;35840;45.982;8.890;2023-08-30T10:06:41;97373.94;;;20.85;44.49
49949;BME280;35840;45.982;8.890;2023-08-30T10:09:08;97369.69;;;20.98;48.92
49949;BME280;35840;45.982;8.890;2023-08-30T10:11:36;97360.50;;;21.03;46.95
49949;BME280;35840;45.982;8.890;2023-08-30T10:14:03;97359.19;;;21.13;48.54
49949;BME280;35840;45.982;8.890;2023-08-30T10:16:32;97368.66;;;21.14;46.51
49949;BME280;35840;45.982;8.890;2023-08-30T10:19:03;97360.81;;;21.14;47.13
49949;BME280;35840;45.982;8.890;2023-08-30T10:21:34;97358.84;;;21.17;46.42
49949;BME280;35840;45.982;8.890;2023-08-30T10:24:02;97356.84;;;21.19;47.67
49949;BME280;35840;45.982;8.890;2023-08-30T10:26:44;97350.06;;;21.24;48.07
49949;BME280;35840;45.982;8.890;2023-08-30T10:29:12;97348.31;;;21.31;45.37
49949;BME280;35840;45.982;8.890;2023-08-30T10:31:39;97345.50;;;21.33;44.30
49949;BME280;35840;45.982;8.890;2023-08-30T10:34:16;97346.69;;;21.30;45.59
49949;BME280;35840;45.982;8.890;2023-08-30T10:36:43;97347.06;;;21.49;45.77
49949;BME280;35840;45.982;8.890;2023-08-30T10:39:11;97349.97;;;21.54;45.58
49949;BME280;35840;45.982;8.890;2023-08-30T10:41:38;97342.38;;;21.59;46.29
49949;BME280;35840;45.982;8.890;2023-08-30T10:44:04;97346.44;;;21.62;46.28
49949;BME280;35840;45.982;8.890;2023-08-30T10:46:32;97344.28;;;21.72;46.00
49949;BME280;35840;45.982;8.890;2023-08-30T10:49:08;97344.72;;;21.76;46.63
49949;BME280;35840;45.982;8.890;2023-08-30T10:51:39;97337.50;;;21.78;47.46
49949;BME280;35840;45.982;8.890;2023-08-30T10:56:57;97339.16;;;21.86;44.89
49949;BME280;35840;45.982;8.890;2023-08-30T10:59:27;97325.16;;;22.00;46.47
49949;BME280;35840;45.982;8.890;2023-08-30T11:01:56;97330.56;;;21.92;45.94
49949;BME280;35840;45.982;8.890;2023-08-30T11:04:27;97325.31;;;21.92;44.35
49949;BME280;35840;45.982;8.890;2023-08-30T11:06:54;97333.97;;;21.92;43.07
49949;BME280;35840;45.982;8.890;2023-08-30T11:09:22;97330.91;;;21.89;45.85
49949;BME280;35840;45.982;8.890;2023-08-30T11:11:49;97337.56;;;21.91;43.42
49949;BME280;35840;45.982;8.890;2023-08-30T11:14:17;97332.97;;;21.93;46.61
49949;BME280;35840;45.982;8.890;2023-08-30T11:16:44;97330.38;;;22.00;47.08
49949;BME280;35840;45.982;8.890;2023-08-30T11:19:11;97332.44;;;22.05;44.50
49949;BME280;35840;45.982;8.890;2023-08-30T11:21:39;97334.88;;;22.06;46.75
49949;BME280;35840;45.982;8.890;2023-08-30T11:24:06;97331.03;;;22.02;42.39
49949;BME280;35840;45.982;8.890;2023-08-30T11:26:33;97334.44;;;22.02;44.56
49949;BME280;35840;45.982;8.890;2023-08-30T11:29:06;97329.69;;;22.13;44.75
49949;BME280;35840;45.982;8.890;2023-08-30T11:31:33;97323.25;;;22.15;43.95
49949;BME280;35840;45.982;8.890;2023-08-30T11:34:00;97323.53;;;22.27;44.11
49949;BME280;35840;45.982;8.890;2023-08-30T11:36:28;97332.97;;;22.28;38.68
49949;BME280;35840;45.982;8.890;2023-08-30T11:38:55;97322.50;;;22.22;43.57
49949;BME280;35840;45.982;8.890;2023-08-30T11:41:22;97328.97;;;22.32;46.53
49949;BME280;35840;45.982;8.890;2023-08-30T11:43:49;97324.00;;;22.38;44.72
49949;BME280;35840;45.982;8.890;2023-08-30T11:46:16;97326.66;;;22.44;45.80
49949;BME280;35840;45.982;8.890;2023-08-30T11:48:43;97323.03;;;22.45;44.43
49949;BME280;35840;45.982;8.890;2023-08-30T11:51:10;97327.91;;;22.48;43.78
49949;BME280;35840;45.982;8.890;2023-08-30T11:53:38;97329.50;;;22.49;44.38
49949;BME280;35840;45.982;8.890;2023-08-30T11:56:06;97325.28;;;22.55;44.87
49949;BME280;35840;45.982;8.890;2023-08-30T11:58:34;97322.69;;;22.62;44.39
49949;BME280;35840;45.982;8.890;2023-08-30T12:01:01;97320.25;;;22.53;41.99
49949;BME280;35840;45.982;8.890;2023-08-30T12:03:29;97323.50;;;22.62;45.74
49949;BME280;35840;45.982;8.890;2023-08-30T12:05:56;97327.78;;;22.70;44.08
49949;BME280;35840;45.982;8.890;2023-08-30T12:08:24;97323.97;;;22.79;43.92
49949;BME280;35840;45.982;8.890;2023-08-30T12:10:54;97319.75;;;22.85;44.99
49949;BME280;35840;45.982;8.890;2023-08-30T12:13:21;97325.22;;;22.90;46.04
49949;BME280;35840;45.982;8.890;2023-08-30T12:15:48;97317.19;;;22.98;44.09
49949;BME280;35840;45.982;8.890;2023-08-30T12:18:15;97322.03;;;23.01;44.14
49949;BME280;35840;45.982;8.890;2023-08-30T12:20:51;97318.38;;;22.96;44.29
49949;BME280;35840;45.982;8.890;2023-08-30T12:23:21;97325.84;;;22.99;44.00
49949;BME280;35840;45.982;8.890;2023-08-30T12:26:01;97324.69;;;23.15;44.49
49949;BME280;35840;45.982;8.890;2023-08-30T12:28:28;97319.44;;;23.08;45.67
49949;BME280;35840;45.982;8.890;2023-08-30T12:30:55;97323.09;;;23.27;45.16
49949;BME280;35840;45.982;8.890;2023-08-30T12:33:22;97314.63;;;23.18;45.26
49949;BME280;35840;45.982;8.890;2023-08-30T12:35:49;97316.84;;;23.21;45.86
49949;BME280;35840;45.982;8.890;2023-08-30T12:38:15;97314.41;;;23.13;42.70
49949;BME280;35840;45.982;8.890;2023-08-30T12:40:50;97318.59;;;23.08;45.49
49949;BME280;35840;45.982;8.890;2023-08-30T12:43:17;97317.22;;;23.05;45.00
49949;BME280;35840;45.982;8.890;2023-08-30T12:45:44;97321.81;;;23.03;46.96
49949;BME280;35840;45.982;8.890;2023-08-30T12:48:11;97319.06;;;23.11;46.67
49949;BME280;35840;45.982;8.890;2023-08-30T12:50:39;97312.75;;;22.99;44.70
49949;BME280;35840;45.982;8.890;2023-08-30T12:53:05;97311.50;;;22.95;45.21
49949;BME280;35840;45.982;8.890;2023-08-30T12:55:33;97318.38;;;22.96;47.23
49949;BME280;35840;45.982;8.890;2023-08-30T12:58:04;97312.75;;;22.99;44.71
49949;BME280;35840;45.982;8.890;2023-08-30T13:00:30;97314.38;;;23.07;47.84
49949;BME280;35840;45.982;8.890;2023-08-30T13:02:57;97315.19;;;23.07;47.04
49949;BME280;35840;45.982;8.890;2023-08-30T13:05:23;97315.97;;;23.01;44.64
49949;BME280;35840;45.982;8.890;2023-08-30T13:07:50;97321.41;;;23.06;47.29
49949;BME280;35840;45.982;8.890;2023-08-30T13:10:17;97315.22;;;23.14;47.60
49949;BME280;35840;45.982;8.890;2023-08-30T13:12:44;97318.50;;;23.29;47.02
49949;BME280;35840;45.982;8.890;2023-08-30T13:15:10;97315.25;;;23.27;46.14
49949;BME280;35840;45.982;8.890;2023-08-30T13:17:37;97310.00;;;23.34;47.28